Time;durP1;ratioP1;P1;durP2;ratioP2;P2;SDS_P1;SDS_P2;PMS_P1;PMS_P2;Temp;Humidity;BMP_temperature;BMP_pressure;BME280_temperature;BME280_humidity;BME280_pressure;Samples;Min_cycle;Max_cycle;Signal;HPM_P1;HPM_P2
2021/12/27 00:02:21;;;;;;;25.20;19.90;;;;;;;3.69;100.00;95388.72;5031277;28;105265;-62
2021/12/27 00:04:48;;;;;;;26.23;19.97;;;;;;;3.70;100.00;95388.50;5031044;28;101881;-62
2021/12/27 00:07:15;;;;;;;24.07;19.20;;;;;;;3.78;100.00;95390.75;5034441;28;105009;-62
2021/12/27 00:09:43;;;;;;;24.93;18.80;;;;;;;3.74;100.00;95388.81;5030896;28;102255;-62
2021/12/27 00:12:10;;;;;;;23.57;18.73;;;;;;;3.73;100.00;95374.88;5031157;28;103710;-62
2021/12/27 00:14:40;;;;;;;22.87;18.40;;;;;;;3.70;100.00;95382.41;5030462;28;105066;-62
2021/12/27 00:17:07;;;;;;;26.43;20.23;;;;;;;3.73;100.00;95380.16;5031248;28;101814;-62
2021/12/27 00:19:35;;;;;;;24.47;18.67;;;;;;;3.78;100.00;95382.06;5030480;28;105221;-62
2021/12/27 00:22:03;;;;;;;24.47;18.77;;;;;;;3.79;100.00;95381.03;5030743;28;105746;-62
2021/12/27 00:24:32;;;;;;;22.97;17.93;;;;;;;3.73;100.00;95379.34;5030894;28;102056;-62
2021/12/27 00:26:58;;;;;;;23.13;18.07;;;;;;;3.75;100.00;95370.19;5031208;28;105185;-62
2021/12/27 00:29:27;;;;;;;24.50;19.47;;;;;;;3.79;100.00;95367.88;5035313;28;103055;-62
2021/12/27 00:31:53;;;;;;;24.13;19.23;;;;;;;3.76;100.00;95371.00;5064971;27;105477;-62
2021/12/27 00:34:23;;;;;;;25.10;19.10;;;;;;;3.77;100.00;95375.22;5030243;28;105430;-62
2021/12/27 00:36:51;;;;;;;23.20;18.20;;;;;;;3.74;100.00;95375.66;5031056;28;101890;-62
2021/12/27 00:39:18;;;;;;;24.97;18.97;;;;;;;3.62;100.00;95375.72;5030951;28;105582;-61
2021/12/27 00:41:45;;;;;;;24.73;19.73;;;;;;;3.66;100.00;95366.31;5030192;28;105182;-62
2021/12/27 00:44:12;;;;;;;27.30;20.47;;;;;;;3.75;100.00;95356.22;5030706;28;101963;-62
2021/12/27 00:46:39;;;;;;;25.27;19.37;;;;;;;3.72;100.00;95340.94;5030976;28;104801;-62
2021/12/27 00:49:06;;;;;;;25.03;19.00;;;;;;;3.72;100.00;95354.09;5029939;27;105898;-62
2021/12/27 00:51:35;;;;;;;25.73;19.83;;;;;;;3.57;100.00;95359.03;5033909;28;101946;-62
2021/12/27 00:54:03;;;;;;;25.00;20.30;;;;;;;3.38;100.00;95362.84;5030928;28;102839;-62
2021/12/27 00:56:30;;;;;;;25.23;19.53;;;;;;;3.36;100.00;95359.63;5030729;28;101882;-62
2021/12/27 00:58:57;;;;;;;24.90;19.13;;;;;;;3.40;100.00;95366.03;5030265;28;105556;-62
2021/12/27 01:01:24;;;;;;;24.63;18.80;;;;;;;3.44;100.00;95367.19;5029510;28;105368;-62
2021/12/27 01:03:51;;;;;;;25.57;19.60;;;;;;;3.43;100.00;95355.84;5030347;28;101919;-62
2021/12/27 01:06:21;;;;;;;24.57;19.47;;;;;;;3.56;100.00;95350.34;5030656;28;104915;-62
2021/12/27 01:08:47;;;;;;;27.03;20.23;;;;;;;3.45;100.00;95359.03;5029797;28;105458;-62
2021/12/27 01:11:25;;;;;;;22.97;18.57;;;;;;;3.36;100.00;95363.06;5029838;28;101859;-61
2021/12/27 01:14:03;;;;;;;27.47;20.43;;;;;;;3.38;100.00;95363.63;5033091;28;105222;-61
2021/12/27 01:16:31;;;;;;;26.23;19.93;;;;;;;3.38;100.00;95358.38;5030389;28;101807;-62
2021/12/27 01:18:58;;;;;;;25.93;20.47;;;;;;;3.51;100.00;95368.66;5029962;28;105533;-62
2021/12/27 01:21:26;;;;;;;24.47;19.40;;;;;;;3.38;100.00;95361.00;5029408;28;105225;-61
2021/12/27 01:23:55;;;;;;;26.63;20.20;;;;;;;3.31;100.00;95362.16;5030069;28;102044;-62
2021/12/27 01:26:25;;;;;;;23.60;17.73;;;;;;;3.48;100.00;95366.47;5030392;28;103734;-62
2021/12/27 01:29:24;;;;;;;25.27;19.43;;;;;;;3.43;100.00;95370.81;5029196;28;105338;-62
2021/12/27 01:31:50;;;;;;;25.60;20.00;;;;;;;3.35;100.00;95363.28;5029702;28;102074;-61
2021/12/27 01:34:18;;;;;;;26.40;19.73;;;;;;;3.25;100.00;95365.69;5029849;28;105834;-62
2021/12/27 01:36:45;;;;;;;26.83;19.80;;;;;;;3.16;100.00;95360.00;5033005;28;105463;-62
2021/12/27 01:39:12;;;;;;;27.70;20.60;;;;;;;3.16;100.00;95361.84;5029862;28;103705;-62
2021/12/27 01:41:40;;;;;;;27.10;20.63;;;;;;;3.00;100.00;95358.06;5028994;28;105675;-62
2021/12/27 01:44:08;;;;;;;27.13;20.63;;;;;;;2.97;100.00;95355.09;5029595;28;101949;-62
2021/12/27 01:46:36;;;;;;;27.37;20.47;;;;;;;3.07;100.00;95357.94;5029869;28;104792;-62
2021/12/27 01:49:05;;;;;;;27.17;20.20;;;;;;;2.99;100.00;95353.03;5029038;28;105093;-62
2021/12/27 01:51:32;;;;;;;26.50;20.13;;;;;;;2.94;100.00;95352.91;5030975;28;101845;-62
2021/12/27 01:54:00;;;;;;;26.53;20.00;;;;;;;2.92;100.00;95349.72;5029604;28;105691;-62
2021/12/27 01:56:27;;;;;;;25.87;20.40;;;;;;;2.91;100.00;95346.31;5029113;28;105405;-61
2021/12/27 01:58:56;;;;;;;29.90;21.90;;;;;;;2.87;100.00;95341.72;5032647;28;102002;-62
2021/12/27 02:01:24;;;;;;;29.77;21.07;;;;;;;2.85;100.00;95346.41;5029359;28;102113;-62
2021/12/27 02:03:53;;;;;;;27.87;20.43;;;;;;;2.83;100.00;95344.00;5030689;27;101758;-62
2021/12/27 02:06:22;;;;;;;27.90;22.07;;;;;;;2.90;100.00;95341.28;5029732;28;104155;-62
2021/12/27 02:08:49;;;;;;;26.33;20.87;;;;;;;2.82;100.00;95344.22;5030476;28;103235;-62
2021/12/27 02:11:19;;;;;;;29.47;21.90;;;;;;;2.85;100.00;95341.16;5029029;28;102070;-62
2021/12/27 02:13:47;;;;;;;27.27;20.97;;;;;;;2.82;100.00;95345.03;5029265;28;103580;-62
2021/12/27 02:16:22;;;;;;;29.83;22.17;;;;;;;2.85;100.00;95344.56;5029067;28;104382;-61
2021/12/27 02:18:51;;;;;;;51.27;22.63;;;;;;;2.69;100.00;95329.50;5032727;28;102170;-62
2021/12/27 02:21:19;;;;;;;81.17;23.00;;;;;;;2.61;100.00;95335.09;5028771;28;105205;-61
2021/12/27 02:23:48;;;;;;;175.80;26.10;;;;;;;2.52;100.00;95325.16;5029205;28;101914;-62
2021/12/27 02:26:20;;;;;;;52.83;23.23;;;;;;;2.43;100.00;95329.13;5010470;28;102538;-61
2021/12/27 02:28:50;;;;;;;184.23;26.27;;;;;;;2.38;100.00;95335.06;5008597;28;105308;-61
2021/12/27 02:31:18;;;;;;;123.33;26.60;;;;;;;2.36;100.00;95328.44;5028563;28;101987;-62
2021/12/27 02:33:45;;;;;;;32.73;23.13;;;;;;;2.42;100.00;95335.41;5029236;28;105129;-62
2021/12/27 02:36:40;;;;;;;30.50;22.63;;;;;;;2.41;100.00;95328.56;5028646;28;105355;-62
2021/12/27 02:39:07;;;;;;;30.43;21.87;;;;;;;2.46;100.00;95336.56;5030107;28;101832;-62
2021/12/27 02:41:33;;;;;;;40.47;23.47;;;;;;;2.47;100.00;95338.16;5031742;28;104732;-62
2021/12/27 02:44:00;;;;;;;35.57;24.17;;;;;;;2.49;100.00;95342.16;5028943;28;101949;-62
2021/12/27 02:46:27;;;;;;;36.77;24.43;;;;;;;2.38;100.00;95344.75;5029174;28;105155;-62
2021/12/27 02:48:54;;;;;;;38.33;25.40;;;;;;;2.37;100.00;95340.53;5028175;28;105353;-62
2021/12/27 02:51:22;;;;;;;41.67;24.70;;;;;;;2.36;100.00;95341.56;5028656;28;101922;-62
2021/12/27 02:53:51;;;;;;;117.63;27.07;;;;;;;2.24;100.00;95343.34;5028662;28;105044;-62
2021/12/27 02:56:29;;;;;;;71.30;25.30;;;;;;;2.12;100.00;95350.38;5029531;28;102875;-62
2021/12/27 02:58:58;;;;;;;81.73;26.37;;;;;;;2.00;100.00;95349.53;5027810;28;103797;-61
2021/12/27 03:01:26;;;;;;;108.50;27.37;;;;;;;2.03;100.00;95349.88;5028442;28;105146;-62
2021/12/27 03:03:54;;;;;;;94.17;26.37;;;;;;;1.98;100.00;95357.63;5031563;28;105456;-62
2021/12/27 03:06:36;;;;;;;46.30;25.07;;;;;;;2.06;100.00;95346.81;5028885;28;105423;-62
2021/12/27 03:09:05;;;;;;;94.47;26.87;;;;;;;1.99;100.00;95340.06;5028028;28;104214;-62
2021/12/27 03:11:31;;;;;;;49.03;26.43;;;;;;;2.04;100.00;95343.66;5029110;27;101885;-61
2021/12/27 03:13:59;;;;;;;90.13;27.60;;;;;;;2.01;100.00;95340.63;5027657;28;103758;-62
2021/12/27 03:16:25;;;;;;;88.80;28.77;;;;;;;1.95;100.00;95342.34;5029101;28;103335;-62
2021/12/27 03:18:54;;;;;;;55.60;26.57;;;;;;;1.95;100.00;95337.09;5028456;28;102067;-61
2021/12/27 03:21:23;;;;;;;82.20;28.87;;;;;;;1.94;100.00;95342.56;5028203;28;105142;-62
2021/12/27 03:23:51;;;;;;;49.73;28.33;;;;;;;1.98;100.00;95341.09;5029301;28;103155;-62
2021/12/27 03:26:19;;;;;;;56.50;28.43;;;;;;;2.00;100.00;95341.66;5032831;27;101978;-62
2021/12/27 03:28:46;;;;;;;49.37;28.27;;;;;;;1.97;100.00;95335.03;5029206;28;103022;-62
2021/12/27 03:31:15;;;;;;;41.20;27.40;;;;;;;2.02;100.00;95337.03;5029488;27;101834;-62
2021/12/27 03:33:42;;;;;;;38.80;26.50;;;;;;;2.15;100.00;95339.44;5028722;28;103217;-61
2021/12/27 03:36:11;;;;;;;40.07;27.03;;;;;;;2.21;100.00;95339.34;5027430;28;105560;-61
2021/12/27 03:38:45;;;;;;;44.20;27.73;;;;;;;2.17;100.00;95340.00;5028003;28;101842;-62
2021/12/27 03:41:14;;;;;;;39.43;26.17;;;;;;;2.31;100.00;95333.56;5027951;28;103849;-62
2021/12/27 03:43:42;;;;;;;37.33;26.37;;;;;;;2.38;100.00;95334.25;5027494;28;104024;-62
2021/12/27 03:46:19;;;;;;;43.63;27.40;;;;;;;2.55;100.00;95324.69;5028076;28;101911;-61
2021/12/27 03:48:46;;;;;;;40.47;25.77;;;;;;;2.61;100.00;95323.78;5030843;28;104873;-61
2021/12/27 03:51:13;;;;;;;39.87;26.53;;;;;;;2.62;100.00;95325.41;5027992;28;101799;-61
2021/12/27 03:53:40;;;;;;;38.13;25.53;;;;;;;2.74;100.00;95328.84;5029163;28;102802;-61
2021/12/27 03:56:09;;;;;;;35.57;25.47;;;;;;;2.83;100.00;95322.19;5027555;28;105413;-61
2021/12/27 03:58:54;;;;;;;37.73;26.17;;;;;;;2.83;100.00;95317.75;5011178;28;102081;-61
2021/12/27 04:01:23;;;;;;;34.67;24.63;;;;;;;2.86;100.00;95322.56;5027661;28;104873;-62
2021/12/27 04:03:53;;;;;;;32.53;22.90;;;;;;;2.93;100.00;95319.81;5027549;28;105590;-62
2021/12/27 04:06:26;;;;;;;33.53;23.30;;;;;;;2.95;100.00;95315.16;5027639;28;101906;-62
2021/12/27 04:08:54;;;;;;;30.73;23.60;;;;;;;2.97;100.00;95319.13;5027920;28;105257;-61
2021/12/27 04:11:21;;;;;;;32.23;23.67;;;;;;;3.05;100.00;95320.59;5030093;28;101947;-61
2021/12/27 04:13:49;;;;;;;32.23;23.00;;;;;;;2.99;100.00;95326.75;5027802;28;105140;-61
2021/12/27 04:16:21;;;;;;;29.70;21.80;;;;;;;3.04;100.00;95325.06;5027145;28;105154;-61
2021/12/27 04:18:48;;;;;;;31.77;22.00;;;;;;;3.10;100.00;95318.91;5029501;28;101764;-61
2021/12/27 04:21:15;;;;;;;35.03;23.50;;;;;;;3.16;100.00;95311.94;5027576;28;105142;-62
2021/12/27 04:23:42;;;;;;;34.60;23.83;;;;;;;3.21;100.00;95309.38;5029112;27;103146;-62
2021/12/27 04:26:10;;;;;;;33.13;23.20;;;;;;;3.08;100.00;95309.66;5031258;28;101867;-61
2021/12/27 04:28:42;;;;;;;34.93;23.50;;;;;;;3.02;100.00;95308.75;5031034;28;104956;-61
2021/12/27 04:31:11;;;;;;;34.90;23.47;;;;;;;3.11;100.00;95303.94;5033840;28;104978;-61
2021/12/27 04:33:38;;;;;;;33.77;23.97;;;;;;;3.13;100.00;95307.13;5030774;28;104752;-61
2021/12/27 04:36:34;;;;;;;34.10;23.80;;;;;;;2.99;100.00;95314.44;5030724;28;102988;-61
2021/12/27 04:39:02;;;;;;;35.60;23.93;;;;;;;3.02;100.00;95307.94;5030931;28;101761;-61
2021/12/27 04:41:28;;;;;;;35.00;23.77;;;;;;;3.09;100.00;95309.41;5030597;28;103730;-62
2021/12/27 04:43:55;;;;;;;34.47;24.17;;;;;;;3.12;100.00;95311.56;5030210;28;105343;-61
2021/12/27 04:46:34;;;;;;;36.53;24.83;;;;;;;3.09;100.00;95316.47;5031072;28;101813;-62
2021/12/27 04:49:01;;;;;;;37.87;24.83;;;;;;;3.06;100.00;95315.13;5030360;28;103705;-61
2021/12/27 04:51:28;;;;;;;38.67;24.70;;;;;;;3.02;100.00;95305.31;5029912;28;105817;-62
2021/12/27 04:53:55;;;;;;;35.37;24.87;;;;;;;2.99;100.00;95305.75;5035346;28;101875;-61
2021/12/27 04:56:33;;;;;;;36.87;24.57;;;;;;;2.92;100.00;95305.09;5030158;28;103963;-61
2021/12/27 04:59:07;;;;;;;36.67;24.17;;;;;;;2.91;100.00;95304.31;5030578;28;101937;-61
2021/12/27 05:01:36;;;;;;;35.13;24.17;;;;;;;2.94;100.00;95313.53;5030315;28;105505;-61
2021/12/27 05:04:03;;;;;;;36.77;24.60;;;;;;;2.95;100.00;95296.75;5031170;28;102820;-62
2021/12/27 05:06:30;;;;;;;35.50;24.40;;;;;;;2.87;100.00;95303.16;5030642;28;101957;-62
2021/12/27 05:08:57;;;;;;;36.70;25.17;;;;;;;2.87;100.00;95302.34;5030224;28;105599;-61
2021/12/27 05:11:24;;;;;;;36.50;24.03;;;;;;;2.82;100.00;95308.28;5029337;28;105234;-61
2021/12/27 05:13:52;;;;;;;38.67;24.93;;;;;;;2.85;100.00;95302.56;5030211;28;101924;-62
2021/12/27 05:16:32;;;;;;;35.03;23.77;;;;;;;2.86;100.00;95300.75;5033329;28;104742;-62
2021/12/27 05:19:00;;;;;;;35.77;24.80;;;;;;;2.89;100.00;95300.31;5030282;28;102020;-62
2021/12/27 05:21:27;;;;;;;41.50;27.23;;;;;;;2.91;100.00;95295.63;5030013;28;104859;-62
2021/12/27 05:23:54;;;;;;;47.27;30.17;;;;;;;2.89;100.00;95303.72;5029395;28;104997;-62
2021/12/27 05:26:24;;;;;;;42.40;27.20;;;;;;;2.85;100.00;95304.41;5030209;28;102021;-62
2021/12/27 05:28:55;;;;;;;39.33;26.83;;;;;;;2.84;100.00;95314.09;5029630;28;104823;-62
2021/12/27 05:31:22;;;;;;;37.50;24.83;;;;;;;2.81;100.00;95308.50;5029005;28;105952;-62
2021/12/27 05:33:49;;;;;;;37.83;24.03;;;;;;;2.77;100.00;95312.63;5030136;28;101911;-62
2021/12/27 05:36:42;;;;;;;33.20;23.90;;;;;;;2.69;100.00;95311.13;5028904;28;105027;-61
2021/12/27 05:39:09;;;;;;;28.10;20.67;;;;;;;2.71;100.00;95305.66;5032742;28;105256;-61
2021/12/27 05:41:36;;;;;;;32.27;22.60;;;;;;;2.73;100.00;95307.03;5031166;28;102872;-61
2021/12/27 05:44:03;;;;;;;29.27;22.37;;;;;;;2.74;100.00;95306.00;5030773;28;102586;-61
2021/12/27 05:46:30;;;;;;;31.30;22.17;;;;;;;2.74;100.00;95307.84;5030091;28;101706;-62
2021/12/27 05:48:58;;;;;;;31.80;23.27;;;;;;;2.80;100.00;95306.91;5029716;28;103709;-62
2021/12/27 05:51:24;;;;;;;29.07;21.77;;;;;;;2.88;100.00;95302.13;5028970;28;103779;-62
2021/12/27 05:53:53;;;;;;;27.83;21.43;;;;;;;2.88;100.00;95298.69;5029944;28;101890;-61
2021/12/27 05:56:49;;;;;;;30.63;22.93;;;;;;;2.99;100.00;95296.06;5029563;28;104739;-62
2021/12/27 05:59:18;;;;;;;27.77;21.13;;;;;;;3.07;100.00;95298.31;5028960;28;104044;-61
2021/12/27 06:01:46;;;;;;;28.17;21.30;;;;;;;3.05;100.00;95291.72;5032903;28;101823;-62
2021/12/27 06:04:18;;;;;;;27.57;21.23;;;;;;;3.06;100.00;95290.69;5029146;28;105479;-61
2021/12/27 06:06:45;;;;;;;28.13;21.80;;;;;;;3.08;100.00;95291.25;5029457;28;101743;-61
2021/12/27 06:09:13;;;;;;;29.57;20.40;;;;;;;3.16;100.00;95293.56;5029272;28;103562;-62
2021/12/27 06:11:40;;;;;;;28.23;20.80;;;;;;;3.14;100.00;95290.34;5028444;28;105373;-62
2021/12/27 06:14:24;;;;;;;30.87;22.00;;;;;;;3.08;100.00;95289.44;5029266;28;101904;-61
2021/12/27 06:16:51;;;;;;;28.77;21.17;;;;;;;3.13;100.00;95286.13;5029570;28;104793;-61
2021/12/27 06:19:20;;;;;;;27.17;20.80;;;;;;;3.11;100.00;95288.97;5028909;28;105471;-61
2021/12/27 06:21:48;;;;;;;29.30;21.60;;;;;;;3.14;100.00;95287.72;5032643;28;101889;-61
2021/12/27 06:24:19;;;;;;;28.33;20.67;;;;;;;3.23;100.00;95288.97;5029762;28;102595;-61
2021/12/27 06:26:46;;;;;;;28.03;21.30;;;;;;;3.21;100.00;95293.63;5030883;28;101671;-62
2021/12/27 06:29:20;;;;;;;26.97;20.50;;;;;;;3.21;100.00;95283.94;5030541;27;102631;-62
2021/12/27 06:31:47;;;;;;;29.77;21.30;;;;;;;3.26;100.00;95285.84;5028011;28;103867;-61
2021/12/27 06:34:34;;;;;;;30.43;21.70;;;;;;;3.24;100.00;95269.53;5029438;28;101846;-61
2021/12/27 06:37:01;;;;;;;29.13;21.00;;;;;;;3.28;100.00;95276.72;5028640;28;105525;-61
2021/12/27 06:39:29;;;;;;;28.93;21.33;;;;;;;3.09;100.00;95280.53;5028730;28;105237;-61
2021/12/27 06:41:56;;;;;;;29.07;20.53;;;;;;;3.03;100.00;95280.66;5029163;28;101896;-61
2021/12/27 06:44:31;;;;;;;26.70;20.23;;;;;;;3.23;100.00;95283.72;5031758;28;105145;-61
2021/12/27 06:46:59;;;;;;;31.87;22.60;;;;;;;3.22;100.00;95284.75;5028807;27;101891;-61
2021/12/27 06:49:26;;;;;;;30.47;21.00;;;;;;;3.22;100.00;95287.38;5028344;28;105805;-61
2021/12/27 06:51:54;;;;;;;26.97;20.43;;;;;;;3.20;100.00;95277.09;5028217;28;104982;-61
2021/12/27 06:54:22;;;;;;;27.30;19.63;;;;;;;3.18;100.00;95273.88;5029622;27;101895;-61
2021/12/27 06:56:50;;;;;;;28.47;20.40;;;;;;;3.30;100.00;95279.13;5030073;28;104290;-62
2021/12/27 06:59:18;;;;;;;27.53;19.97;;;;;;;3.24;100.00;95274.78;5027725;28;105982;-61
2021/12/27 07:01:45;;;;;;;25.47;19.80;;;;;;;3.10;100.00;95273.44;5028424;28;102090;-62
2021/12/27 07:04:21;;;;;;;26.60;20.17;;;;;;;3.07;100.00;95282.56;5028560;28;105349;-61
2021/12/27 07:06:48;;;;;;;26.70;19.67;;;;;;;3.10;100.00;95273.44;5031437;28;105369;-61
2021/12/27 07:09:15;;;;;;;27.57;20.37;;;;;;;3.12;100.00;95274.03;5029764;28;103248;-61
2021/12/27 07:11:43;;;;;;;26.00;20.07;;;;;;;3.15;100.00;95268.28;5027588;28;105336;-61
2021/12/27 07:14:34;;;;;;;26.93;20.27;;;;;;;3.22;100.00;95279.50;5028258;28;101869;-61
2021/12/27 07:17:01;;;;;;;25.93;19.50;;;;;;;3.18;100.00;95280.97;5028522;28;105640;-61
2021/12/27 07:19:29;;;;;;;25.27;19.67;;;;;;;3.18;100.00;95284.38;5027976;28;103684;-61
2021/12/27 07:21:56;;;;;;;26.60;20.00;;;;;;;3.16;100.00;95275.94;5029634;27;101821;-62
2021/12/27 07:24:24;;;;;;;26.63;19.83;;;;;;;3.20;100.00;95276.28;5028236;28;105275;-62
2021/12/27 07:26:52;;;;;;;25.30;19.87;;;;;;;3.23;100.00;95270.56;5027878;28;105361;-61
2021/12/27 07:29:38;;;;;;;27.90;20.90;;;;;;;3.27;100.00;95279.59;5031829;28;101864;-61
2021/12/27 07:32:05;;;;;;;25.77;20.47;;;;;;;3.26;100.00;95281.41;5027644;28;105538;-61
2021/12/27 07:34:49;;;;;;;23.90;19.03;;;;;;;3.35;100.00;95273.97;5028473;28;101833;-61
2021/12/27 07:37:17;;;;;;;22.43;18.23;;;;;;;3.47;100.00;95275.53;5029781;28;102981;-61
2021/12/27 07:39:44;;;;;;;26.73;19.43;;;;;;;3.46;100.00;95275.75;5027729;28;106280;-61
2021/12/27 07:42:12;;;;;;;25.77;19.37;;;;;;;3.34;100.00;95275.00;5028226;28;101883;-61
2021/12/27 07:45:09;;;;;;;23.43;18.97;;;;;;;3.49;100.00;95270.84;5029433;28;102905;-61
2021/12/27 07:47:36;;;;;;;23.60;18.03;;;;;;;3.50;100.00;95274.28;5027661;28;105766;-61
2021/12/27 07:50:05;;;;;;;25.30;19.40;;;;;;;3.48;100.00;95271.88;5027675;28;101860;-61
2021/12/27 07:52:33;;;;;;;24.97;19.50;;;;;;;3.47;100.00;95266.84;5032424;28;104350;-61
2021/12/27 07:55:14;;;;;;;28.20;22.00;;;;;;;3.53;100.00;95268.53;5027918;28;101871;-61
2021/12/27 07:57:41;;;;;;;31.43;23.87;;;;;;;3.52;100.00;95269.56;5027690;27;105106;-61
2021/12/27 08:00:11;;;;;;;28.57;22.23;;;;;;;3.65;100.00;95264.06;5030037;28;105204;-61
2021/12/27 08:02:41;;;;;;;29.07;22.50;;;;;;;3.71;100.00;95269.16;5033310;27;101715;-61
2021/12/27 08:05:15;;;;;;;25.77;21.33;;;;;;;3.79;100.00;95258.28;5031419;28;105143;-61
2021/12/27 08:07:42;;;;;;;27.03;20.57;;;;;;;3.92;100.00;95254.53;5030790;28;106372;-61
2021/12/27 08:10:12;;;;;;;23.07;18.97;;;;;;;4.12;100.00;95260.16;5030931;28;103623;-61
2021/12/27 08:12:40;;;;;;;23.17;18.60;;;;;;;4.17;100.00;95257.59;5031412;28;105423;-61
2021/12/27 08:15:15;;;;;;;23.07;18.17;;;;;;;4.42;100.00;95250.91;5034172;28;105666;-61
2021/12/27 08:17:42;;;;;;;21.10;17.60;;;;;;;4.52;100.00;95247.63;5031480;28;104858;-62
2021/12/27 08:20:10;;;;;;;21.67;18.13;;;;;;;4.47;100.00;95242.31;5030439;28;105892;-60
2021/12/27 08:22:37;;;;;;;21.90;18.33;;;;;;;4.42;100.00;95242.25;5031111;28;101853;-62
2021/12/27 08:25:17;;;;;;;22.73;18.70;;;;;;;4.61;100.00;95244.38;5031128;28;105277;-58
2021/12/27 08:28:20;;;;;;;20.87;17.83;;;;;;;4.70;100.00;95244.75;5030641;28;104202;-60
2021/12/27 08:30:49;;;;;;;24.70;20.00;;;;;;;4.74;100.00;95251.16;5031042;28;101697;-61
2021/12/27 08:33:40;;;;;;;22.47;18.30;;;;;;;4.51;100.00;95236.31;5030724;28;105672;-59
2021/12/27 08:36:13;;;;;;;19.87;16.90;;;;;;;4.66;100.00;95230.47;5029833;28;105586;-61
2021/12/27 08:38:40;;;;;;;22.23;18.43;;;;;;;4.73;100.00;95233.72;5014558;28;105903;-61
2021/12/27 08:41:09;;;;;;;20.60;16.57;;;;;;;4.65;100.00;95234.16;5027660;28;103934;-61
2021/12/27 08:43:36;;;;;;;20.97;16.73;;;;;;;4.68;100.00;95239.72;5030913;28;101971;-61
2021/12/27 08:46:13;;;;;;;19.07;16.50;;;;;;;4.76;100.00;95236.69;5030961;28;104877;-66
2021/12/27 08:48:40;;;;;;;33.37;25.23;;;;;;;4.43;100.00;95243.81;5030146;28;104225;-59
2021/12/27 08:51:07;;;;;;;32.53;24.20;;;;;;;4.21;100.00;95248.22;5031707;27;101884;-60
2021/12/27 08:53:35;;;;;;;30.10;23.03;;;;;;;4.10;100.00;95236.72;5030615;28;105868;-60
2021/12/27 08:56:19;;;;;;;29.17;22.33;;;;;;;4.18;100.00;95240.78;5029833;28;105468;-60
2021/12/27 08:58:52;;;;;;;31.10;22.30;;;;;;;4.26;100.00;95235.13;5019111;28;102365;-59
2021/12/27 09:01:42;;;;;;;31.87;23.53;;;;;;;4.22;100.00;95236.66;5030257;27;102837;-59
2021/12/27 09:04:09;;;;;;;30.20;22.80;;;;;;;4.23;100.00;95228.53;5030634;28;101911;-59
2021/12/27 09:06:36;;;;;;;30.03;23.63;;;;;;;4.22;100.00;95231.38;5030554;28;105196;-59
2021/12/27 09:09:04;;;;;;;29.20;21.77;;;;;;;4.24;100.00;95221.41;5029644;28;105864;-58
2021/12/27 09:11:31;;;;;;;27.50;21.70;;;;;;;4.18;100.00;95225.81;5028182;27;102065;-58
2021/12/27 09:13:59;;;;;;;27.20;21.37;;;;;;;4.13;100.00;95235.44;5032054;28;102637;-58
2021/12/27 09:16:27;;;;;;;25.40;20.77;;;;;;;4.18;100.00;95222.38;5029676;28;104162;-58
2021/12/27 09:18:55;;;;;;;25.67;20.33;;;;;;;4.12;100.00;95218.88;5030327;28;101669;-58
2021/12/27 09:21:22;;;;;;;28.33;22.30;;;;;;;4.14;100.00;95221.28;5034129;28;102932;-58
2021/12/27 09:23:49;;;;;;;31.43;23.23;;;;;;;4.22;100.00;95218.22;5030418;28;101964;-58
2021/12/27 09:26:47;;;;;;;28.03;21.40;;;;;;;4.28;100.00;95219.91;5030136;28;105502;-58
2021/12/27 09:29:44;;;;;;;29.70;21.77;;;;;;;4.37;100.00;95207.94;5029363;28;105900;-57
2021/12/27 09:32:11;;;;;;;32.70;23.67;;;;;;;4.50;100.00;95199.72;5029799;28;101833;-58
2021/12/27 09:34:52;;;;;;;31.70;24.03;;;;;;;4.74;100.00;95201.13;5029683;28;105799;-58
2021/12/27 09:37:19;;;;;;;29.80;21.97;;;;;;;4.57;100.00;95202.97;5029221;28;105043;-57
2021/12/27 09:39:53;;;;;;;32.70;23.20;;;;;;;4.47;100.00;95195.72;5029868;28;101824;-57
2021/12/27 09:42:20;;;;;;;31.60;23.30;;;;;;;4.32;100.00;95197.34;5029666;28;105711;-59
2021/12/27 09:44:56;;;;;;;31.93;24.03;;;;;;;4.40;100.00;95205.63;5032481;28;105221;-60
2021/12/27 09:47:24;;;;;;;37.73;23.53;;;;;;;4.46;100.00;95214.38;5063829;27;105214;-59
2021/12/27 09:49:53;;;;;;;41.53;24.23;;;;;;;4.21;100.00;95216.63;5028952;28;105772;-59
2021/12/27 09:52:22;;;;;;;64.33;23.53;;;;;;;3.92;100.00;95215.09;5029582;28;102302;-60
2021/12/27 09:55:18;;;;;;;34.33;24.17;;;;;;;4.25;100.00;95201.97;5029574;28;103764;-60
2021/12/27 09:57:44;;;;;;;34.67;24.30;;;;;;;4.45;100.00;95191.75;5010050;28;103304;-60
2021/12/27 10:00:13;;;;;;;34.53;24.20;;;;;;;4.49;100.00;95193.66;5023396;28;101891;-60
2021/12/27 10:02:42;;;;;;;33.00;23.37;;;;;;;4.64;100.00;95179.91;5030729;28;101643;-60
2021/12/27 10:05:28;;;;;;;31.30;23.23;;;;;;;4.96;100.00;95188.78;5029992;28;101901;-60
2021/12/27 10:07:54;;;;;;;32.43;24.53;;;;;;;5.02;100.00;95183.31;5034453;28;101745;-59
2021/12/27 10:10:22;;;;;;;31.13;22.57;;;;;;;5.16;100.00;95171.38;5029807;27;103245;-59
2021/12/27 10:12:49;;;;;;;28.07;22.00;;;;;;;5.47;100.00;95170.66;5029241;28;102152;-59
2021/12/27 10:15:36;;;;;;;29.27;22.00;;;;;;;5.88;100.00;95171.84;5029228;28;102026;-59
2021/12/27 10:18:09;;;;;;;24.70;19.90;;;;;;;5.91;100.00;95166.09;5009434;28;102686;-63
2021/12/27 10:20:37;;;;;;;21.57;17.17;;;;;;;5.94;100.00;95161.09;5023915;28;101733;-59
2021/12/27 10:23:05;;;;;;;24.40;19.07;;;;;;;6.13;100.00;95164.97;5028746;27;102695;-59
2021/12/27 10:25:34;;;;;;;18.17;15.83;;;;;;;6.22;100.00;95157.38;5028894;28;102768;-59
2021/12/27 10:28:05;;;;;;;19.20;16.37;;;;;;;6.53;100.00;95159.97;5011313;28;102796;-60
2021/12/27 10:30:35;;;;;;;18.80;15.63;;;;;;;6.54;100.00;95155.50;5023160;28;105153;-60
2021/12/27 10:33:07;;;;;;;20.00;15.63;;;;;;;6.77;100.00;95155.09;5027276;28;102060;-60
2021/12/27 10:35:56;;;;;;;16.07;14.30;;;;;;;6.82;100.00;95145.34;5028205;28;105201;-60
2021/12/27 10:38:24;;;;;;;13.90;11.53;;;;;;;6.82;100.00;95132.13;5027533;28;105486;-60
2021/12/27 10:40:54;;;;;;;16.27;13.33;;;;;;;7.33;100.00;95127.81;5028855;28;101943;-61
2021/12/27 10:43:39;;;;;;;17.23;13.33;;;;;;;7.58;100.00;95119.97;5028646;28;104817;-61
2021/12/27 10:46:13;;;;;;;15.17;13.53;;;;;;;7.87;100.00;95119.22;5027843;28;105432;-61
2021/12/27 10:48:42;;;;;;;15.37;13.13;;;;;;;7.95;100.00;95116.03;5028277;28;102328;-61
2021/12/27 10:51:11;;;;;;;15.33;13.37;;;;;;;8.18;100.00;95109.41;5031001;28;105452;-61
2021/12/27 10:53:49;;;;;;;12.03;10.73;;;;;;;8.28;100.00;95110.22;5029200;27;101901;-61
2021/12/27 10:56:51;;;;;;;12.10;10.80;;;;;;;8.26;100.00;95115.00;5028702;28;103124;-61
2021/12/27 10:59:21;;;;;;;11.60;10.40;;;;;;;8.16;100.00;95111.50;5027179;28;105045;-61
2021/12/27 11:01:51;;;;;;;12.33;10.80;;;;;;;8.07;100.00;95113.13;5027718;28;101880;-61
2021/12/27 11:04:20;;;;;;;11.87;10.63;;;;;;;8.11;100.00;95109.66;5027607;28;104070;-61
2021/12/27 11:06:49;;;;;;;11.30;10.10;;;;;;;8.06;100.00;95095.63;5026838;28;105586;-59
2021/12/27 11:09:17;;;;;;;12.70;10.73;;;;;;;8.23;100.00;95094.31;5027363;28;102301;-59
2021/12/27 11:11:44;;;;;;;11.60;10.40;;;;;;;8.31;100.00;95088.50;5027524;28;105690;-62
2021/12/27 11:14:33;;;;;;;11.47;10.27;;;;;;;8.24;100.00;95080.03;5030774;28;105891;-61
2021/12/27 11:17:00;;;;;;;10.80;9.73;;;;;;;8.19;100.00;95084.50;5027751;28;105139;-61
2021/12/27 11:19:27;;;;;;;10.63;9.63;;;;;;;8.26;100.00;95080.56;5028206;28;106356;-61
2021/12/27 11:21:56;;;;;;;11.93;10.40;;;;;;;8.23;100.00;95078.44;5030243;28;101963;-61
2021/12/27 11:24:23;;;;;;;12.53;10.13;;;;;;;8.27;100.00;95076.03;5027239;28;105704;-61
2021/12/27 11:26:55;;;;;;;10.77;9.67;;;;;;;8.30;100.00;95075.53;5026773;28;105739;-61